Time;durP1;ratioP1;P1;durP2;ratioP2;P2;SDS_P1;SDS_P2;PMS_P1;PMS_P2;Temp;Humidity;BMP_temperature;BMP_pressure;BME280_temperature;BME280_humidity;BME280_pressure;Samples;Min_cycle;Max_cycle;Signal;HPM_P1;HPM_P2
2023/08/24 05:54:32;;;;;;;5.28;3.63;;;;;;;;;;10582405;28;20281;-88
2023/08/24 05:59:51;;;;;;;6.10;4.50;;;;;;;;;;10590891;22;20055;-86
2023/08/24 06:05:14;;;;;;;3.20;2.67;;;;;;;;;;10623098;28;20035;-86
2023/08/24 06:10:15;;;;;;;9.23;5.28;;;;;;;;;;10573112;28;20550;-86
2023/08/24 06:15:19;;;;;;;7.05;5.22;;;;;;;;;;10545802;28;20039;-86
2023/08/24 06:21:15;;;;;;;4.20;3.53;;;;;;;;;;10549671;28;20180;-86
2023/08/24 06:26:19;;;;;;;5.07;3.65;;;;;;;;;;10601107;28;20032;-86
2023/08/24 06:31:21;;;;;;;4.57;3.72;;;;;;;;;;10560832;28;20060;-86
2023/08/24 06:36:25;;;;;;;7.43;5.50;;;;;;;;;;10559464;28;20466;-86
2023/08/24 06:41:28;;;;;;;6.63;4.72;;;;;;;;;;10585043;28;20056;-86
2023/08/24 06:46:30;;;;;;;11.05;8.60;;;;;;;;;;10567509;28;20031;-87
2023/08/24 06:52:04;;;;;;;11.70;9.40;;;;;;;;;;10578802;28;20492;-86
2023/08/24 06:57:08;;;;;;;10.57;9.38;;;;;;;;;;10565183;28;20062;-86
2023/08/24 07:02:12;;;;;;;7.60;5.75;;;;;;;;;;10531276;28;20034;-86
2023/08/24 07:07:17;;;;;;;3.35;2.95;;;;;;;;;;10539262;28;20466;-86
2023/08/24 07:12:25;;;;;;;6.20;3.80;;;;;;;;;;10553315;28;20024;-87
2023/08/24 07:17:26;;;;;;;6.88;3.60;;;;;;;;;;10563513;28;20036;-87
2023/08/24 07:22:27;;;;;;;4.65;3.72;;;;;;;;;;10532383;28;20024;-86
2023/08/24 07:27:28;;;;;;;6.00;4.47;;;;;;;;;;10546112;28;20031;-86
2023/08/24 07:32:29;;;;;;;7.95;6.63;;;;;;;;;;10539718;28;20047;-87
2023/08/24 07:37:30;;;;;;;10.10;5.25;;;;;;;;;;10531615;28;20028;-87
2023/08/24 07:42:32;;;;;;;8.07;5.63;;;;;;;;;;10528613;28;20461;-85
2023/08/24 07:47:33;;;;;;;7.80;5.53;;;;;;;;;;10530157;28;20024;-86
2023/08/24 07:52:35;;;;;;;6.63;5.07;;;;;;;;;;10536560;28;20055;-86
2023/08/24 07:57:36;;;;;;;6.32;4.90;;;;;;;;;;10537200;28;20036;-87
2023/08/24 08:02:37;;;;;;;6.88;5.40;;;;;;;;;;10535666;28;20024;-86
2023/08/24 08:07:39;;;;;;;8.18;4.53;;;;;;;;;;10535055;28;20127;-86
2023/08/24 08:12:40;;;;;;;6.22;4.70;;;;;;;;;;10540296;28;20030;-86
2023/08/24 08:17:42;;;;;;;7.07;5.25;;;;;;;;;;10539734;28;20450;-86
2023/08/24 08:22:43;;;;;;;6.25;4.30;;;;;;;;;;10557269;28;20031;-86
2023/08/24 08:27:45;;;;;;;7.65;4.43;;;;;;;;;;10560948;28;20100;-86
2023/08/24 08:32:47;;;;;;;6.45;4.95;;;;;;;;;;10555804;28;20541;-86
2023/08/24 08:37:51;;;;;;;6.50;5.03;;;;;;;;;;10528052;28;20474;-88
2023/08/24 08:42:52;;;;;;;7.18;4.70;;;;;;;;;;10511543;28;20032;-86
2023/08/24 08:47:56;;;;;;;7.40;5.22;;;;;;;;;;10528674;28;20028;-86
2023/08/24 08:52:58;;;;;;;6.85;4.57;;;;;;;;;;10527184;28;20027;-86
2023/08/24 08:58:01;;;;;;;7.88;5.63;;;;;;;;;;10526430;28;20573;-88
2023/08/24 09:03:39;;;;;;;5.78;4.30;;;;;;;;;;10543975;28;20028;-87
2023/08/24 09:09:19;;;;;;;6.25;4.55;;;;;;;;;;10499251;28;20047;-88
2023/08/24 09:14:33;;;;;;;8.43;4.18;;;;;;;;;;10527283;28;20032;-86
2023/08/24 09:20:12;;;;;;;9.98;4.70;;;;;;;;;;10528237;28;20086;-87
2023/08/24 09:25:30;;;;;;;7.30;4.45;;;;;;;;;;10566035;28;20094;-85
2023/08/24 09:30:35;;;;;;;7.90;5.05;;;;;;;;;;10533895;28;20036;-86
2023/08/24 09:35:37;;;;;;;6.32;4.90;;;;;;;;;;10513410;28;20396;-87
2023/08/24 09:40:47;;;;;;;10.88;7.05;;;;;;;;;;10510501;28;20171;-87
2023/08/24 09:45:56;;;;;;;6.38;4.43;;;;;;;;;;10527228;28;20035;-86
2023/08/24 09:51:05;;;;;;;6.95;4.03;;;;;;;;;;10526129;28;20386;-86
2023/08/24 09:56:09;;;;;;;7.13;3.97;;;;;;;;;;10536453;28;20024;-87
2023/08/24 10:01:17;;;;;;;5.90;4.20;;;;;;;;;;10546753;28;20501;-87
2023/08/24 10:06:20;;;;;;;6.90;4.63;;;;;;;;;;10526578;28;20028;-87
2023/08/24 10:11:28;;;;;;;6.28;4.30;;;;;;;;;;10528453;28;20051;-87
2023/08/24 10:16:30;;;;;;;7.33;4.53;;;;;;;;;;10541525;28;20048;-87
2023/08/24 10:21:31;;;;;;;6.47;4.20;;;;;;;;;;10540780;28;20062;-87
2023/08/24 10:26:33;;;;;;;8.63;4.53;;;;;;;;;;10559217;28;20032;-87
2023/08/24 10:31:35;;;;;;;7.40;5.35;;;;;;;;;;10539167;28;20482;-88
2023/08/24 10:36:40;;;;;;;5.88;4.55;;;;;;;;;;10535046;28;20118;-87
2023/08/24 10:41:51;;;;;;;6.25;4.53;;;;;;;;;;10536775;28;20028;-87
2023/08/24 10:47:12;;;;;;;7.38;4.60;;;;;;;;;;10550719;28;20024;-86
2023/08/24 10:52:20;;;;;;;6.95;4.93;;;;;;;;;;10540390;28;20020;-86
2023/08/24 10:57:23;;;;;;;8.27;5.20;;;;;;;;;;10533131;28;20082;-88
2023/08/24 11:02:24;;;;;;;8.80;5.10;;;;;;;;;;10532708;28;20486;-87
2023/08/24 11:07:25;;;;;;;10.55;5.30;;;;;;;;;;10532290;28;20035;-88
2023/08/24 11:12:27;;;;;;;6.20;4.40;;;;;;;;;;10514749;28;20033;-88
2023/08/24 11:17:40;;;;;;;6.28;4.10;;;;;;;;;;10536534;28;20031;-88
2023/08/24 11:22:42;;;;;;;6.97;5.10;;;;;;;;;;10551171;28;20028;-88
2023/08/24 11:27:46;;;;;;;5.22;3.85;;;;;;;;;;10563433;28;20016;-87
2023/08/24 11:32:53;;;;;;;5.30;4.32;;;;;;;;;;10551665;28;20020;-87
2023/08/24 11:37:54;;;;;;;7.45;4.10;;;;;;;;;;10537419;28;20035;-87
2023/08/24 11:42:55;;;;;;;8.68;5.03;;;;;;;;;;10513647;28;20030;-87
2023/08/24 11:47:56;;;;;;;7.50;4.32;;;;;;;;;;10533584;28;20039;-86
2023/08/24 11:52:59;;;;;;;6.65;3.72;;;;;;;;;;10531472;28;20028;-87
2023/08/24 11:58:01;;;;;;;4.75;3.70;;;;;;;;;;10550472;22;20053;-84
2023/08/24 12:03:03;;;;;;;7.05;5.10;;;;;;;;;;10455812;28;20030;-84
2023/08/24 12:08:04;;;;;;;4.25;3.50;;;;;;;;;;10457116;28;20191;-84
2023/08/24 12:13:06;;;;;;;4.63;3.45;;;;;;;;;;10464810;28;20025;-84
2023/08/24 12:18:08;;;;;;;6.25;3.60;;;;;;;;;;10487037;28;20021;-84
2023/08/24 12:23:10;;;;;;;6.10;3.80;;;;;;;;;;10480596;28;20032;-84
2023/08/24 12:28:19;;;;;;;5.32;3.00;;;;;;;;;;10453652;28;20171;-84
2023/08/24 12:33:27;;;;;;;5.10;3.22;;;;;;;;;;10453513;28;20032;-84
2023/08/24 12:39:10;;;;;;;6.95;3.20;;;;;;;;;;10451551;28;20036;-85
2023/08/24 12:44:48;;;;;;;6.30;3.13;;;;;;;;;;10467026;28;20422;-84
2023/08/24 12:49:57;;;;;;;7.40;3.22;;;;;;;;;;10445372;28;20025;-85
2023/08/24 13:01:17;;;;;;;7.22;3.22;;;;;;;;;;10465382;28;20352;-86
2023/08/24 13:12:34;;;;;;;5.30;3.50;;;;;;;;;;10462643;28;20021;-87
2023/08/24 13:17:57;;;;;;;9.40;3.58;;;;;;;;;;10401588;28;20037;-86
2023/08/24 13:23:38;;;;;;;9.07;4.68;;;;;;;;;;10451767;28;20102;-88
2023/08/24 13:29:03;;;;;;;6.15;3.60;;;;;;;;;;10463034;28;20033;-86
2023/08/24 13:34:17;;;;;;;6.43;3.42;;;;;;;;;;10464444;28;20025;-86
2023/08/24 13:39:37;;;;;;;6.88;3.78;;;;;;;;;;10453793;28;20028;-86
2023/08/24 13:44:48;;;;;;;5.00;3.42;;;;;;;;;;10432143;28;20068;-86
2023/08/24 13:49:52;;;;;;;7.55;3.35;;;;;;;;;;10469672;28;20032;-84
2023/08/24 13:55:22;;;;;;;5.35;3.70;;;;;;;;;;10465680;28;20043;-86
2023/08/24 14:11:44;;;;;;;7.33;4.17;;;;;;;;;;10475296;28;20045;-87
2023/08/24 14:17:06;;;;;;;9.25;3.90;;;;;;;;;;10471276;28;20048;-87
2023/08/24 14:22:29;;;;;;;4.55;3.75;;;;;;;;;;10493606;28;20025;-86
2023/08/24 14:51:15;;;;;;;6.80;3.60;;;;;;;;;;10472516;28;20020;-87
2023/08/24 15:02:28;;;;;;;8.30;4.22;;;;;;;;;;10474102;28;20032;-88
2023/08/24 15:19:06;;;;;;;7.63;3.65;;;;;;;;;;10497832;28;20051;-90
2023/08/24 16:03:55;;;;;;;6.13;3.45;;;;;;;;;;10485028;28;20033;-87
2023/08/24 16:20:42;;;;;;;6.05;3.10;;;;;;;;;;10477279;28;20390;-86
2023/08/24 16:25:44;;;;;;;4.72;3.00;;;;;;;;;;10456040;28;20036;-86
2023/08/24 16:31:15;;;;;;;5.03;2.95;;;;;;;;;;10449666;28;20542;-87
2023/08/24 16:36:46;;;;;;;6.78;3.17;;;;;;;;;;10435060;28;20344;-85
2023/08/24 16:41:53;;;;;;;6.65;2.83;;;;;;;;;;10383133;28;20114;-84
2023/08/24 16:52:35;;;;;;;7.15;3.47;;;;;;;;;;10384939;28;20508;-84
